Kapuskasing, Canada
Current Conditions -  °F | °C
As of 1:00 PM on Tuesday 21 Oct 2014 (Local Time) from CYYU Reporting Station
Rain Showers Rain Showers  
Wind Chill: 30°   Ceiling: 1400
Heat Index: 37°   Visibility: 15mi
Dew Point: 30°   Wind: 12mph
Humidity: 75%   Direction: 70°ENE
Pressure: 30.32"   Gusts: NA
Location:  49.42°N, 82.43°W
Report Text: CYYU 211700Z 07010KT 15SM -SHRA BKN014 03/M01 A3032 RMK SC7 CIG RAG CVCTV CLD EMBD SLP280
Loading
Personal Weather Stations






























Interactive Weather Map
Tropical Storm Tracking
New forecast layout! Learn more

10-Day Weather Forecast

Advertisements
Track Severe Weather on mobile